Aérodrome :
LOGIN :

S'inscrire | Disclaimer

   EN    FR    IT 

 










Légende :    VFR   VFR Marginal   IFR   IFR Intensif   IFR Très Intensif
Visi : 
Plafond : 
>= 8 km
>= 3000ft
5 à 8 km
1000 à 3000 ft
1500m à 5 km
500 à 1000 ft
800 à 1500m
200 à 500 ft
< 800m
< 200 ft
Symboles :   Orages  Brouillard  Fortes neiges  Fortes précipitations  Vent > 20 kt
SIGMETs :   Divers  Orages  Givrage  Turbulence  Onde Orograph.  Cendres Volcan.






- Altitude de l'aérodrome : 290 ft
- Code IATA : ACI


EGJA - Alderney

DERNIER METAR :
  • 041550Z 07013KT 9999 FEW012 BKN016 07/04 Q1013

METARs EXPIRÉS :
  • 041520Z 08016KT 9999 FEW012 BKN016 07/04 Q1013
  • 041450Z 09017KT 9999 FEW010 BKN016 07/04 Q1013
  • 041420Z 08016KT 9999 FEW010 BKN016 07/04 Q1012
  • 041350Z 08014KT 9999 SCT010 BKN018 07/04 Q1012
  • 041320Z 09012KT 040V110 9999 BKN010 07/05 Q1012

TAF TAF EGJA
Valide du 04 à 15h jusqu'au 05 à 00h UTC


041404Z 0415/0500 09012KT 9999 SCT010 BKN018
PROB40
TEMPO 0415/0500 8000 BKN008



MET'MAP, la Météo Aéronautique d'un coup d'oeil ! - Copyright ORBIFLY Décembre 2007 - Disclaimer

ORBIFLY MET'MAP TEAM :

Programmation & Développement : Alexandra Zaïnal
Sur une idée originale de : Baudouin d'Aumeries
Soutien technique & logistique : Manuel Goepfert
Assistance : Marc-Olivier Méhu




SOURCES & CREDITS :

   NOAA